Time;durP1;ratioP1;P1;durP2;ratioP2;P2;SDS_P1;SDS_P2;PMS_P1;PMS_P2;Temp;Humidity;BMP_temperature;BMP_pressure;BME280_temperature;BME280_humidity;BME280_pressure;Samples;Min_cycle;Max_cycle;Signal;HPM_P1;HPM_P2
2023/02/12 00:00:48;;;;;;;29.10;17.60;;;;;;;2.99;100.00;99198.15;52536;1254;1050199;-76
2023/02/12 00:03:36;;;;;;;31.40;19.50;;;;;;;2.96;100.00;99193.90;52461;1253;1049917;-76
2023/02/12 00:06:02;;;;;;;31.30;19.80;;;;;;;2.93;100.00;99197.64;52507;1254;1016239;-78
2023/02/12 00:08:29;;;;;;;36.30;20.90;;;;;;;2.92;100.00;99197.90;52528;1254;1061575;-78
2023/02/12 00:10:56;;;;;;;38.50;23.10;;;;;;;2.89;100.00;99205.49;52524;1254;1016461;-78
2023/02/12 00:13:23;;;;;;;32.60;18.60;;;;;;;2.87;100.00;99216.12;52475;1256;1071980;-78
2023/02/12 00:15:49;;;;;;;28.60;18.20;;;;;;;2.87;100.00;99208.16;52519;1254;1016784;-76
2023/02/12 00:18:16;;;;;;;25.50;15.10;;;;;;;2.83;100.00;99211.79;52518;1254;1071863;-79
2023/02/12 00:20:42;;;;;;;23.00;13.40;;;;;;;2.83;100.00;99209.15;52484;1253;1015832;-78
2023/02/12 00:23:09;;;;;;;30.00;16.70;;;;;;;2.82;100.00;99211.55;52513;1254;1071625;-79
2023/02/12 00:25:39;;;;;;;24.70;15.80;;;;;;;2.80;100.00;99214.07;52408;1257;1016328;-78
2023/02/12 00:28:06;;;;;;;36.40;17.40;;;;;;;2.78;100.00;99214.77;52501;1254;1052267;-76
2023/02/12 00:30:32;;;;;;;19.90;13.20;;;;;;;2.79;100.00;99215.39;52458;1254;1015745;-78
2023/02/12 00:32:59;;;;;;;22.90;13.90;;;;;;;2.79;100.00;99224.08;52486;1256;1058593;-76
2023/02/12 00:35:25;;;;;;;18.80;11.90;;;;;;;2.81;100.00;99227.84;52552;1254;1016472;-78
2023/02/12 00:37:52;;;;;;;20.40;11.40;;;;;;;2.83;100.00;99219.66;52483;1256;1075545;-79
2023/02/12 00:40:19;;;;;;;21.20;13.00;;;;;;;2.89;100.00;99224.12;52497;1254;1016310;-78
2023/02/12 00:42:45;;;;;;;22.00;13.00;;;;;;;2.96;100.00;99222.94;52532;1254;1069851;-78
2023/02/12 00:45:12;;;;;;;26.70;14.20;;;;;;;2.99;100.00;99217.90;52474;1254;1015673;-76
2023/02/12 00:47:39;;;;;;;45.60;26.30;;;;;;;2.99;100.00;99212.38;52465;1254;1073561;-76
2023/02/12 00:50:06;;;;;;;47.50;30.80;;;;;;;2.99;100.00;99218.66;52490;1257;1016438;-77
2023/02/12 00:52:32;;;;;;;25.60;15.60;;;;;;;2.99;100.00;99225.04;52477;1256;1050760;-79
2023/02/12 00:54:59;;;;;;;27.00;15.10;;;;;;;3.00;100.00;99229.14;52515;1254;1016306;-78
2023/02/12 00:57:26;;;;;;;34.60;21.60;;;;;;;3.00;100.00;99232.65;52512;1254;1060121;-77
2023/02/12 00:59:52;;;;;;;25.30;14.80;;;;;;;3.01;100.00;99233.73;52496;1254;1016157;-76
2023/02/12 01:02:19;;;;;;;24.10;14.40;;;;;;;3.01;100.00;99237.05;52480;1254;1075834;-76
2023/02/12 01:04:45;;;;;;;24.40;14.50;;;;;;;3.03;100.00;99233.52;52478;1257;1016477;-76
2023/02/12 01:07:12;;;;;;;24.00;13.70;;;;;;;3.02;100.00;99230.39;52504;1254;1071916;-78
2023/02/12 01:09:39;;;;;;;29.70;15.60;;;;;;;3.02;100.00;99228.77;52506;1257;1015992;-78
2023/02/12 01:12:05;;;;;;;28.80;15.40;;;;;;;3.01;100.00;99224.98;52504;1256;1073103;-77
2023/02/12 01:14:32;;;;;;;112.20;49.40;;;;;;;2.99;100.00;99231.48;52463;1254;1015874;-78
2023/02/12 01:16:59;;;;;;;40.60;27.30;;;;;;;2.96;100.00;99234.80;52467;1256;1050912;-76
2023/02/12 01:19:26;;;;;;;29.90;21.10;;;;;;;2.96;100.00;99229.28;52509;1256;1016355;-76
2023/02/12 01:21:53;;;;;;;27.00;16.60;;;;;;;2.99;100.00;99232.27;52514;1257;1056824;-78
2023/02/12 01:24:20;;;;;;;29.90;21.10;;;;;;;3.01;100.00;99237.46;52376;1257;1016342;-76
2023/02/12 01:26:46;;;;;;;29.60;17.30;;;;;;;3.01;100.00;99237.10;52474;1254;1072770;-79
2023/02/12 01:29:13;;;;;;;23.10;15.60;;;;;;;3.00;100.00;99238.66;52509;1254;1015930;-78
2023/02/12 01:31:41;;;;;;;27.30;17.00;;;;;;;3.00;100.00;99236.69;52524;1256;1069046;-76
2023/02/12 01:34:08;;;;;;;23.20;14.80;;;;;;;3.01;100.00;99237.84;52515;1253;1016466;-78
2023/02/12 01:36:35;;;;;;;26.20;16.80;;;;;;;3.02;100.00;99241.34;52347;1259;1070558;-76
2023/02/12 01:39:03;;;;;;;31.90;19.20;;;;;;;3.01;100.00;99246.77;52498;1258;1015620;-79
2023/02/12 01:41:31;;;;;;;30.90;20.50;;;;;;;3.00;100.00;99244.63;52476;1256;1050800;-76
2023/02/12 01:44:14;;;;;;;31.50;20.90;;;;;;;2.98;100.00;99244.86;52447;1254;1016234;-76
2023/02/12 01:46:42;;;;;;;27.00;16.80;;;;;;;2.94;100.00;99244.86;52461;1257;1051242;-78
2023/02/12 01:49:12;;;;;;;25.40;17.40;;;;;;;2.95;100.00;99246.39;52425;1254;1016210;-76
2023/02/12 01:51:39;;;;;;;26.80;14.70;;;;;;;2.94;100.00;99252.69;52406;1253;1058469;-77
2023/02/12 01:54:06;;;;;;;20.30;13.00;;;;;;;2.95;100.00;99252.60;52401;1260;1016321;-76
2023/02/12 01:56:33;;;;;;;27.70;19.10;;;;;;;2.96;100.00;99255.45;52439;1254;1073328;-76
2023/02/12 01:59:00;;;;;;;35.70;24.70;;;;;;;2.97;100.00;99260.35;52420;1254;1015961;-78
2023/02/12 02:01:28;;;;;;;29.70;17.90;;;;;;;2.98;100.00;99263.52;52377;1257;1069254;-78
2023/02/12 02:03:58;;;;;;;33.80;20.50;;;;;;;2.98;100.00;99266.94;52451;1256;1016050;-78
2023/02/12 02:06:27;;;;;;;30.90;19.30;;;;;;;3.00;100.00;99269.77;52487;1253;1071187;-76
2023/02/12 02:08:54;;;;;;;31.70;17.80;;;;;;;3.00;100.00;99269.45;52514;1256;1016280;-78
2023/02/12 02:17:09;;;;;;;23.80;13.00;;;;;;;3.01;100.00;99276.45;52499;1253;1049990;-79
2023/02/12 02:19:41;;;;;;;24.00;14.90;;;;;;;3.00;100.00;99281.21;52465;1254;1053281;-78
2023/02/12 02:22:25;;;;;;;26.30;15.10;;;;;;;3.00;100.00;99282.49;52503;1257;1051178;-77
2023/02/12 02:25:17;;;;;;;19.60;12.30;;;;;;;2.99;100.00;99286.19;52520;1256;1050691;-79
2023/02/12 02:28:25;;;;;;;26.80;15.80;;;;;;;2.98;100.00;99289.48;52515;1254;1053691;-79
2023/02/12 02:30:56;;;;;;;32.10;17.00;;;;;;;3.00;100.00;99296.59;52524;1258;1051343;-77
2023/02/12 02:33:33;;;;;;;26.30;14.10;;;;;;;3.00;100.00;99299.92;52475;1256;1053445;-77
2023/02/12 02:36:19;;;;;;;27.60;15.90;;;;;;;3.01;100.00;99298.89;52408;1256;1053240;-79
2023/02/12 02:38:51;;;;;;;33.90;20.50;;;;;;;3.04;100.00;99308.17;52507;1256;1050732;-79
2023/02/12 02:41:30;;;;;;;34.30;18.90;;;;;;;3.07;100.00;99312.79;52614;1254;1050402;-79
2023/02/12 02:43:56;;;;;;;33.60;21.10;;;;;;;3.07;100.00;99311.08;52501;1254;1050894;-76
2023/02/12 02:46:46;;;;;;;39.70;21.90;;;;;;;3.07;100.00;99316.50;52277;1253;1016372;-77
2023/02/12 02:49:17;;;;;;;32.70;17.80;;;;;;;3.07;100.00;99319.14;52492;1253;1061202;-79
2023/02/12 02:51:45;;;;;;;30.90;17.50;;;;;;;3.07;100.00;99318.56;52494;1253;1058616;-79
2023/02/12 02:54:14;;;;;;;28.40;16.80;;;;;;;3.07;100.00;99322.90;52458;1254;1016252;-77
2023/02/12 02:56:43;;;;;;;25.30;14.30;;;;;;;3.04;100.00;99325.96;52506;1253;1016151;-79
2023/02/12 02:59:31;;;;;;;24.10;13.30;;;;;;;3.04;100.00;99325.47;52503;1254;1016090;-79
2023/02/12 03:02:06;;;;;;;28.60;14.70;;;;;;;3.06;100.00;99331.12;52587;1254;1073167;-79
2023/02/12 03:04:54;;;;;;;28.40;16.30;;;;;;;3.05;100.00;99332.85;52518;1256;1075832;-77
2023/02/12 03:07:30;;;;;;;34.70;18.40;;;;;;;3.03;100.00;99334.91;52464;1257;1077247;-79
2023/02/12 03:10:03;;;;;;;28.20;14.70;;;;;;;3.03;100.00;99330.79;52389;1253;1075133;-79
2023/02/12 03:12:36;;;;;;;31.60;16.10;;;;;;;3.03;100.00;99332.98;52480;1254;1074776;-79
2023/02/12 03:15:10;;;;;;;31.90;16.40;;;;;;;3.00;100.00;99346.65;52469;1254;1072364;-77
2023/02/12 03:17:39;;;;;;;29.70;15.90;;;;;;;2.98;100.00;99350.66;52499;1256;1075263;-78
2023/02/12 03:20:18;;;;;;;27.10;17.00;;;;;;;2.98;100.00;99355.60;52529;1256;1016291;-77
2023/02/12 03:23:00;;;;;;;32.00;17.90;;;;;;;2.98;100.00;99356.66;52580;1256;1071519;-75
2023/02/12 03:25:33;;;;;;;39.70;20.50;;;;;;;2.99;100.00;99357.58;52513;1257;1074552;-76
2023/02/12 03:28:15;;;;;;;33.50;18.70;;;;;;;2.99;100.00;99360.77;52446;1256;1072294;-78
2023/02/12 03:30:54;;;;;;;41.40;25.20;;;;;;;2.98;100.00;99362.14;52540;1257;1075375;-76
2023/02/12 03:33:30;;;;;;;34.60;21.60;;;;;;;2.99;100.00;99371.14;52506;1254;1072239;-76
2023/02/12 03:36:45;;;;;;;37.00;23.10;;;;;;;2.97;100.00;99383.03;52484;1253;1073156;-77
2023/02/12 03:39:24;;;;;;;34.40;22.80;;;;;;;2.95;100.00;99390.73;52510;1254;1072379;-76
2023/02/12 03:42:16;;;;;;;39.30;23.70;;;;;;;2.94;100.00;99390.16;52490;1254;1075057;-79
2023/02/12 03:44:51;;;;;;;32.40;19.70;;;;;;;2.93;100.00;99390.31;52545;1253;1075616;-78
2023/02/12 03:47:24;;;;;;;32.00;19.00;;;;;;;2.91;100.00;99399.19;52482;1254;1073762;-79
2023/02/12 03:50:10;;;;;;;33.90;18.10;;;;;;;2.89;100.00;99399.21;52411;1255;1073178;-76
2023/02/12 03:52:37;;;;;;;36.30;20.20;;;;;;;2.88;100.00;99409.34;52549;1254;1075737;-79
2023/02/12 03:55:04;;;;;;;41.50;21.80;;;;;;;2.89;100.00;99409.42;52483;1257;1015898;-77
2023/02/12 03:57:34;;;;;;;39.90;22.30;;;;;;;2.88;100.00;99405.39;52553;1256;1069071;-79
2023/02/12 04:00:06;;;;;;;41.90;22.50;;;;;;;2.89;100.00;99414.16;52390;1254;1239948;-79
2023/02/12 04:02:32;;;;;;;44.10;24.20;;;;;;;2.91;100.00;99425.45;52552;1253;1069425;-79
2023/02/12 04:05:06;;;;;;;36.50;22.40;;;;;;;2.90;100.00;99427.64;52387;1258;1016439;-79
2023/02/12 04:07:34;;;;;;;32.60;18.50;;;;;;;2.90;100.00;99431.06;52511;1256;1070334;-79
2023/02/12 04:10:00;;;;;;;32.50;19.70;;;;;;;2.91;100.00;99434.88;52450;1256;1018219;-79
2023/02/12 04:12:36;;;;;;;33.90;18.30;;;;;;;2.91;100.00;99441.75;52402;1256;1051169;-77
2023/02/12 04:15:05;;;;;;;36.70;17.50;;;;;;;2.93;100.00;99446.42;52446;1254;1051547;-79
2023/02/12 04:18:14;;;;;;;35.30;20.80;;;;;;;2.93;100.00;99448.85;52545;1254;1018284;-78
2023/02/12 04:20:41;;;;;;;36.70;23.90;;;;;;;2.91;100.00;99464.81;52376;1257;1051532;-79
2023/02/12 04:23:31;;;;;;;39.90;24.90;;;;;;;2.91;100.00;99471.98;52536;1251;1015679;-77
2023/02/12 04:26:04;;;;;;;42.20;26.30;;;;;;;2.90;100.00;99465.88;52554;1256;1061306;-79
2023/02/12 04:28:46;;;;;;;43.00;27.20;;;;;;;2.90;100.00;99466.77;52528;1251;1058282;-79
2023/02/12 04:31:38;;;;;;;37.30;22.70;;;;;;;2.90;100.00;99467.84;52575;1251;1057144;-76
2023/02/12 04:34:14;;;;;;;40.80;21.30;;;;;;;2.90;100.00;99473.03;52526;1254;1058694;-79
2023/02/12 04:37:07;;;;;;;40.90;21.60;;;;;;;2.89;100.00;99477.19;52546;1256;1061131;-79
2023/02/12 04:39:35;;;;;;;37.40;20.40;;;;;;;2.88;100.00;99482.67;52553;1251;1058698;-77
2023/02/12 04:42:02;;;;;;;46.90;20.10;;;;;;;2.88;100.00;99484.64;52563;1251;1016321;-77
2023/02/12 04:44:36;;;;;;;39.80;22.10;;;;;;;2.88;100.00;99488.80;52507;1251;1075130;-77
2023/02/12 04:47:03;;;;;;;42.70;21.80;;;;;;;2.87;100.00;99485.30;52522;1251;1073153;-77
2023/02/12 04:49:30;;;;;;;42.40;20.40;;;;;;;2.87;100.00;99484.23;52530;1256;1016013;-77
2023/02/12 04:51:56;;;;;;;39.40;20.90;;;;;;;2.85;100.00;99491.88;52538;1251;1068924;-77
2023/02/12 04:54:23;;;;;;;38.90;23.40;;;;;;;2.84;100.00;99493.77;52511;1251;1016351;-79
2023/02/12 04:56:50;;;;;;;44.40;22.30;;;;;;;2.85;100.00;99500.23;52454;1256;1073319;-77
2023/02/12 04:59:16;;;;;;;47.00;21.70;;;;;;;2.84;100.00;99510.38;52528;1256;1016044;-77
2023/02/12 05:01:44;;;;;;;35.50;18.90;;;;;;;2.83;100.00;99509.34;52530;1254;1050835;-77
2023/02/12 05:04:12;;;;;;;40.30;22.30;;;;;;;2.82;100.00;99514.77;52527;1251;1015737;-79
2023/02/12 05:06:39;;;;;;;40.20;21.50;;;;;;;2.82;100.00;99520.93;52487;1251;1059162;-77
2023/02/12 05:09:06;;;;;;;42.20;23.20;;;;;;;2.80;100.00;99524.61;52522;1251;1016064;-79
2023/02/12 05:11:32;;;;;;;59.80;36.50;;;;;;;2.77;100.00;99532.92;52479;1251;1074973;-79
2023/02/12 05:13:59;;;;;;;68.90;39.70;;;;;;;2.78;100.00;99533.50;52516;1256;1016457;-77
2023/02/12 05:16:25;;;;;;;41.10;24.30;;;;;;;2.78;100.00;99537.53;52424;1251;1068880;-79
2023/02/12 05:18:52;;;;;;;41.30;22.30;;;;;;;2.76;100.00;99543.79;52535;1251;1016240;-77
2023/02/12 05:21:19;;;;;;;44.10;23.70;;;;;;;2.75;100.00;99544.94;52505;1255;1071185;-77
2023/02/12 05:23:45;;;;;;;38.80;22.10;;;;;;;2.76;100.00;99552.92;52472;1251;1015816;-77
2023/02/12 05:26:14;;;;;;;42.20;25.00;;;;;;;2.74;100.00;99557.23;52539;1255;1051129;-77
2023/02/12 05:28:40;;;;;;;47.70;26.00;;;;;;;2.73;100.00;99559.27;52534;1251;1016187;-79
2023/02/12 05:31:08;;;;;;;55.50;28.30;;;;;;;2.72;100.00;99567.86;52501;1256;1016490;-77
2023/02/12 05:33:35;;;;;;;44.70;27.30;;;;;;;2.68;100.00;99569.09;52538;1251;1058426;-79
2023/02/12 05:36:03;;;;;;;51.70;25.00;;;;;;;2.67;100.00;99571.17;52488;1251;1015845;-79
2023/02/12 05:38:30;;;;;;;286.00;175.60;;;;;;;2.68;100.00;99570.39;52505;1254;1075827;-77
2023/02/12 05:41:07;;;;;;;80.80;55.40;;;;;;;2.70;100.00;99569.91;52507;1251;1016267;-77
2023/02/12 05:43:34;;;;;;;39.50;25.50;;;;;;;2.71;100.00;99572.80;52543;1255;1071780;-79
2023/02/12 05:46:01;;;;;;;42.50;23.20;;;;;;;2.71;100.00;99575.60;52589;1251;1016082;-80
2023/02/12 05:48:28;;;;;;;54.60;27.80;;;;;;;2.70;100.00;99576.67;52548;1256;1070589;-79
2023/02/12 05:51:15;;;;;;;45.80;24.00;;;;;;;2.70;100.00;99575.30;52474;1256;1018217;-77
2023/02/12 05:53:42;;;;;;;54.80;31.40;;;;;;;2.67;100.00;99579.45;52529;1255;1050463;-79
2023/02/12 05:56:15;;;;;;;59.80;31.50;;;;;;;2.61;100.00;99581.89;52551;1254;1016333;-79
2023/02/12 05:58:44;;;;;;;54.50;36.10;;;;;;;2.55;100.00;99579.40;52509;1251;1060896;-79
2023/02/12 06:01:13;;;;;;;71.60;42.20;;;;;;;2.46;100.00;99581.77;52550;1251;1018603;-79
2023/02/12 06:03:39;;;;;;;61.00;37.90;;;;;;;2.36;100.00;99589.12;52526;1254;1015996;-79
2023/02/12 06:06:06;;;;;;;59.80;33.90;;;;;;;2.30;100.00;99594.55;52573;1251;1015721;-77
2023/02/12 06:08:33;;;;;;;87.80;52.40;;;;;;;2.23;100.00;99604.11;52534;1251;1072677;-77
2023/02/12 06:11:02;;;;;;;120.20;73.50;;;;;;;2.19;100.00;99610.31;52539;1251;1016334;-77
2023/02/12 06:13:29;;;;;;;122.40;77.80;;;;;;;2.13;100.00;99611.06;52549;1251;1071696;-79
2023/02/12 06:15:55;;;;;;;136.60;83.20;;;;;;;2.09;100.00;99616.45;52487;1251;1015855;-77
2023/02/12 06:18:22;;;;;;;131.30;81.40;;;;;;;2.11;100.00;99620.41;52523;1251;1072963;-79
2023/02/12 06:20:49;;;;;;;98.70;64.60;;;;;;;2.11;100.00;99621.20;52507;1256;1016196;-77
2023/02/12 06:23:15;;;;;;;104.00;62.30;;;;;;;2.13;100.00;99626.03;52505;1255;1053925;-79
2023/02/12 06:25:42;;;;;;;106.70;62.40;;;;;;;2.13;100.00;99632.94;52540;1251;1016691;-77
2023/02/12 06:28:09;;;;;;;81.50;50.20;;;;;;;2.13;100.00;99632.40;52534;1254;1058322;-77
2023/02/12 06:30:35;;;;;;;82.80;47.90;;;;;;;2.13;100.00;99633.14;52533;1257;1016354;-77
2023/02/12 06:33:02;;;;;;;137.90;76.80;;;;;;;2.15;100.00;99637.21;52531;1251;1076479;-79
2023/02/12 06:35:28;;;;;;;97.20;55.10;;;;;;;2.17;100.00;99632.14;52570;1251;1015939;-77
2023/02/12 06:37:55;;;;;;;99.40;52.10;;;;;;;2.21;100.00;99631.94;52488;1251;1069595;-77
2023/02/12 06:40:22;;;;;;;85.70;52.70;;;;;;;2.24;100.00;99637.63;52517;1251;1015948;-79
2023/02/12 06:42:49;;;;;;;98.30;59.70;;;;;;;2.29;100.00;99642.48;52529;1251;1072896;-79
2023/02/12 06:45:15;;;;;;;97.20;52.60;;;;;;;2.32;100.00;99647.48;52503;1257;1016771;-77
2023/02/12 06:47:42;;;;;;;65.80;40.10;;;;;;;2.35;100.00;99646.85;52536;1251;1049997;-79
2023/02/12 06:50:09;;;;;;;61.50;34.80;;;;;;;2.38;100.00;99647.00;52533;1251;1016020;-79
2023/02/12 06:52:35;;;;;;;135.30;82.80;;;;;;;2.41;100.00;99653.56;52507;1251;1061390;-76
2023/02/12 06:55:02;;;;;;;121.00;69.60;;;;;;;2.48;100.00;99650.77;52523;1251;1016191;-79
2023/02/12 06:57:29;;;;;;;49.60;27.20;;;;;;;2.51;100.00;99657.71;52502;1251;1075437;-79
2023/02/12 06:59:55;;;;;;;81.00;39.60;;;;;;;2.54;100.00;99659.26;52507;1251;1018884;-79
2023/02/12 07:02:22;;;;;;;132.90;89.70;;;;;;;2.58;100.00;99656.90;52525;1254;1069534;-77
2023/02/12 07:04:49;;;;;;;51.60;33.40;;;;;;;2.65;100.00;99657.58;52510;1255;1016215;-79
2023/02/12 07:07:15;;;;;;;152.60;121.80;;;;;;;2.70;100.00;99659.19;52512;1257;1073464;-77
2023/02/12 07:09:42;;;;;;;72.90;46.60;;;;;;;2.70;100.00;99662.33;52525;1255;1016479;-77
2023/02/12 07:12:09;;;;;;;98.70;61.30;;;;;;;2.72;100.00;99675.85;52460;1251;1050120;-79
2023/02/12 07:14:36;;;;;;;37.40;18.60;;;;;;;2.67;100.00;99679.88;52508;1254;1016175;-79
2023/02/12 07:17:04;;;;;;;69.40;38.20;;;;;;;2.64;100.00;99683.30;52554;1257;1058306;-79
2023/02/12 07:19:30;;;;;;;45.60;29.60;;;;;;;2.65;100.00;99686.66;52537;1251;1016440;-79
2023/02/12 07:21:57;;;;;;;73.30;50.20;;;;;;;2.63;100.00;99692.09;52547;1251;1075032;-79
2023/02/12 07:24:24;;;;;;;77.70;52.60;;;;;;;2.61;100.00;99693.07;52492;1257;1016147;-78
2023/02/12 07:26:51;;;;;;;38.90;27.60;;;;;;;2.63;100.00;99698.23;52521;1252;1072009;-79
2023/02/12 07:29:17;;;;;;;52.30;32.10;;;;;;;2.60;100.00;99698.73;52529;1251;1016359;-77
2023/02/12 07:31:44;;;;;;;41.80;25.60;;;;;;;2.60;100.00;99706.39;52482;1257;1073013;-79
2023/02/12 07:34:11;;;;;;;34.40;20.60;;;;;;;2.66;100.00;99711.78;52564;1251;1015676;-79
2023/02/12 07:36:37;;;;;;;46.60;32.30;;;;;;;2.70;100.00;99713.89;52526;1257;1049560;-79
2023/02/12 07:39:04;;;;;;;40.70;28.40;;;;;;;2.74;100.00;99715.76;52560;1255;1019540;-77
2023/02/12 07:41:32;;;;;;;55.70;36.80;;;;;;;2.76;100.00;99716.33;52539;1255;1058682;-76
2023/02/12 07:44:06;;;;;;;42.80;23.20;;;;;;;2.80;100.00;99717.88;52559;1251;1017692;-79
2023/02/12 07:46:34;;;;;;;26.90;14.80;;;;;;;2.83;100.00;99721.41;52535;1251;1058369;-79
2023/02/12 07:49:04;;;;;;;27.20;17.10;;;;;;;2.78;100.00;99717.94;52548;1254;1018606;-76
2023/02/12 07:51:31;;;;;;;30.30;18.50;;;;;;;2.80;100.00;99722.20;52553;1251;1016244;-79
2023/02/12 07:53:59;;;;;;;25.60;12.90;;;;;;;2.79;100.00;99730.13;52486;1255;1019091;-79
2023/02/12 07:56:29;;;;;;;26.10;11.50;;;;;;;2.79;100.00;99729.57;52525;1257;1071805;-79
2023/02/12 07:58:56;;;;;;;40.00;19.90;;;;;;;2.85;100.00;99731.94;52572;1251;1016006;-77
2023/02/12 08:01:27;;;;;;;53.90;28.90;;;;;;;2.94;100.00;99732.88;52535;1251;1016095;-79
2023/02/12 08:03:57;;;;;;;38.10;20.90;;;;;;;3.00;100.00;99731.25;52503;1251;1071593;-77
2023/02/12 08:06:25;;;;;;;38.30;20.40;;;;;;;3.03;100.00;99739.48;52547;1255;1015990;-77
2023/02/12 08:08:59;;;;;;;33.20;18.30;;;;;;;3.01;100.00;99740.73;52528;1251;1018176;-76
2023/02/12 08:11:27;;;;;;;26.20;14.00;;;;;;;3.02;100.00;99743.92;52516;1251;1070805;-77
2023/02/12 08:13:53;;;;;;;181.60;132.50;;;;;;;2.90;100.00;99742.39;52494;1257;1015744;-77
2023/02/12 08:16:21;;;;;;;45.40;26.20;;;;;;;2.80;100.00;99743.27;52544;1251;1054024;-77
2023/02/12 08:18:48;;;;;;;29.10;15.80;;;;;;;2.82;100.00;99748.27;52429;1257;1018150;-77
2023/02/12 08:21:22;;;;;;;30.30;16.50;;;;;;;2.98;100.00;99754.55;52518;1251;1057918;-79
2023/02/12 08:23:49;;;;;;;44.90;23.10;;;;;;;3.06;100.00;99760.23;52531;1257;1060962;-79
2023/02/12 08:26:18;;;;;;;36.80;23.20;;;;;;;3.16;100.00;99758.83;52477;1251;1016480;-77
2023/02/12 08:28:56;;;;;;;93.20;63.00;;;;;;;3.18;100.00;99760.23;52529;1251;1073076;-79
2023/02/12 08:31:27;;;;;;;59.50;43.60;;;;;;;3.17;100.00;99757.23;52519;1251;1072911;-79
2023/02/12 08:33:54;;;;;;;44.90;35.00;;;;;;;3.13;100.00;99756.82;52418;1251;1075182;-79
2023/02/12 08:36:25;;;;;;;17.90;8.80;;;;;;;3.25;100.00;99762.06;52529;1251;1016271;-77
2023/02/12 08:38:51;;;;;;;12.80;7.70;;;;;;;3.40;100.00;99765.38;52490;1254;1068709;-79
2023/02/12 08:41:20;;;;;;;16.60;9.80;;;;;;;3.47;100.00;99766.28;52506;1251;1016361;-78
2023/02/12 08:43:48;;;;;;;40.60;30.30;;;;;;;3.47;100.00;99773.98;52509;1257;1070916;-77
2023/02/12 08:46:16;;;;;;;39.10;18.40;;;;;;;3.49;100.00;99778.21;52529;1252;1016014;-80
2023/02/12 08:48:43;;;;;;;19.30;11.30;;;;;;;3.45;100.00;99780.70;52474;1257;1053877;-76
2023/02/12 08:51:12;;;;;;;24.80;13.60;;;;;;;3.42;100.00;99781.74;52514;1251;1015706;-77
2023/02/12 08:53:39;;;;;;;24.20;12.70;;;;;;;3.30;100.00;99786.27;52549;1251;1058714;-77
2023/02/12 08:56:06;;;;;;;26.40;18.60;;;;;;;3.20;100.00;99785.58;52530;1251;1016438;-77
2023/02/12 08:58:33;;;;;;;58.80;34.60;;;;;;;3.14;100.00;99787.61;52526;1251;1075181;-77
2023/02/12 09:01:00;;;;;;;62.20;34.00;;;;;;;3.09;100.00;99790.11;52556;1251;1016386;-77
2023/02/12 09:03:27;;;;;;;33.10;18.90;;;;;;;3.14;100.00;99795.64;52491;1251;1071388;-79
2023/02/12 09:05:54;;;;;;;44.40;27.30;;;;;;;3.25;100.00;99801.30;52533;1252;1017357;-79
2023/02/12 09:08:20;;;;;;;18.80;11.40;;;;;;;3.38;100.00;99803.00;52523;1251;1073563;-77
2023/02/12 09:10:47;;;;;;;39.30;23.00;;;;;;;3.42;100.00;99807.86;52516;1251;1016465;-77
2023/02/12 09:13:14;;;;;;;32.20;27.10;;;;;;;3.34;100.00;99810.46;52501;1255;1050420;-79
2023/02/12 09:15:42;;;;;;;49.80;36.10;;;;;;;3.28;100.00;99810.48;52490;1251;1016212;-77
2023/02/12 09:18:10;;;;;;;55.50;36.80;;;;;;;3.39;100.00;99820.50;52471;1256;1057957;-79
2023/02/12 09:20:38;;;;;;;24.80;15.40;;;;;;;3.29;100.00;99818.61;52539;1251;1016107;-77
2023/02/12 09:23:06;;;;;;;34.30;25.00;;;;;;;3.25;100.00;99822.90;52550;1251;1072840;-77
2023/02/12 09:25:33;;;;;;;22.50;14.60;;;;;;;3.26;100.00;99827.33;52565;1251;1015965;-77
2023/02/12 09:28:01;;;;;;;40.00;28.50;;;;;;;3.28;100.00;99829.04;52531;1251;1072100;-77
2023/02/12 09:30:27;;;;;;;34.30;22.30;;;;;;;3.19;100.00;99839.44;52545;1251;1016477;-78
2023/02/12 09:32:55;;;;;;;21.00;12.00;;;;;;;3.26;100.00;99834.20;52473;1255;1070039;-76
2023/02/12 09:35:22;;;;;;;37.40;27.90;;;;;;;3.24;100.00;99832.44;52511;1252;1015711;-76
2023/02/12 09:37:49;;;;;;;34.00;21.70;;;;;;;3.34;100.00;99833.44;52564;1257;1051105;-78
2023/02/12 09:40:34;;;;;;;29.80;16.10;;;;;;;3.53;100.00;99842.38;52509;1257;1018013;-79
2023/02/12 09:43:08;;;;;;;29.60;16.30;;;;;;;3.65;100.00;99846.63;52520;1256;1060889;-77
2023/02/12 09:45:42;;;;;;;31.70;20.80;;;;;;;3.57;100.00;99846.18;52534;1251;1058040;-78
2023/02/12 09:48:14;;;;;;;90.70;43.30;;;;;;;3.59;100.00;99844.77;52550;1256;1057105;-76
2023/02/12 09:50:41;;;;;;;28.10;16.10;;;;;;;3.58;100.00;99841.64;52521;1251;1058250;-77
2023/02/12 09:53:11;;;;;;;28.60;13.90;;;;;;;3.73;99.96;99845.71;52543;1251;1016098;-79
2023/02/12 09:55:38;;;;;;;53.20;24.50;;;;;;;3.79;99.78;99847.43;52537;1251;1075607;-79
2023/02/12 09:58:11;;;;;;;39.70;18.40;;;;;;;3.81;99.57;99845.84;52446;1251;1016497;-79
2023/02/12 10:00:38;;;;;;;26.00;13.70;;;;;;;3.87;99.98;99848.25;52491;1257;1068526;-79
2023/02/12 10:03:11;;;;;;;24.40;13.30;;;;;;;3.94;99.79;99851.12;52535;1251;1016427;-79
2023/02/12 10:05:57;;;;;;;36.30;17.50;;;;;;;3.96;98.98;99850.73;52523;1257;1071295;-77
2023/02/12 10:08:39;;;;;;;18.90;8.70;;;;;;;4.08;99.78;99850.34;52466;1251;1072979;-77
2023/02/12 10:11:15;;;;;;;19.80;10.50;;;;;;;4.26;100.00;99848.80;52510;1251;1072066;-77
2023/02/12 10:14:04;;;;;;;14.70;7.40;;;;;;;4.28;98.83;99854.68;52500;1254;1073657;-79
2023/02/12 10:16:35;;;;;;;16.00;6.90;;;;;;;4.28;97.51;99858.59;52492;1257;1073820;-77
2023/02/12 10:19:10;;;;;;;15.10;8.00;;;;;;;4.36;97.57;99860.59;52502;1251;1073108;-78
2023/02/12 10:22:07;;;;;;;14.40;7.90;;;;;;;4.53;99.37;99862.05;52476;1257;1073197;-79
2023/02/12 10:25:15;;;;;;;16.50;7.40;;;;;;;4.63;99.23;99862.33;52435;1256;1072685;-79
2023/02/12 10:27:50;;;;;;;10.20;6.70;;;;;;;4.58;97.23;99866.55;52481;1256;1070228;-76
2023/02/12 10:30:39;;;;;;;16.60;9.10;;;;;;;4.30;96.15;99864.15;52389;1259;1070862;-76
2023/02/12 10:33:10;;;;;;;22.50;10.30;;;;;;;4.07;96.62;99864.61;52457;1252;1072979;-78
2023/02/12 10:35:41;;;;;;;18.20;11.20;;;;;;;3.74;97.09;99865.58;52453;1259;1070863;-76
2023/02/12 10:38:15;;;;;;;18.30;11.70;;;;;;;3.59;97.78;99862.75;52509;1256;1073265;-78
2023/02/12 10:40:43;;;;;;;19.20;10.60;;;;;;;3.47;96.37;99862.77;52516;1251;1071538;-78
2023/02/12 10:43:10;;;;;;;23.80;10.70;;;;;;;3.40;96.83;99862.61;52459;1251;1015551;-78
2023/02/12 10:45:38;;;;;;;19.20;10.10;;;;;;;3.36;95.79;99867.17;52522;1254;1051542;-76
2023/02/12 10:48:10;;;;;;;16.30;9.30;;;;;;;3.62;96.89;99864.95;52516;1257;1015727;-78
2023/02/12 10:50:54;;;;;;;16.90;10.20;;;;;;;3.74;96.37;99868.98;52548;1251;1060526;-78
2023/02/12 10:53:32;;;;;;;21.20;12.20;;;;;;;3.71;95.68;99871.98;52506;1251;1057936;-76
2023/02/12 10:56:11;;;;;;;26.80;15.00;;;;;;;3.66;95.72;99872.76;52524;1251;1059092;-78
2023/02/12 10:58:39;;;;;;;22.00;11.70;;;;;;;3.62;95.63;99868.50;52492;1254;1057123;-79
2023/02/12 11:01:15;;;;;;;20.00;12.50;;;;;;;3.63;95.11;99865.27;52517;1255;1016333;-77
2023/02/12 11:03:42;;;;;;;19.20;9.70;;;;;;;3.77;96.43;99868.75;52532;1251;1073159;-76
2023/02/12 11:06:23;;;;;;;18.90;9.10;;;;;;;3.83;95.81;99867.82;52517;1251;1016191;-79
2023/02/12 11:08:50;;;;;;;16.30;8.70;;;;;;;3.81;93.99;99870.02;52480;1257;1068758;-77
2023/02/12 11:11:27;;;;;;;17.10;9.50;;;;;;;3.97;94.82;99870.88;52546;1251;1016305;-76
2023/02/12 11:13:59;;;;;;;20.00;9.90;;;;;;;4.02;94.01;99873.45;52486;1257;1073681;-77
2023/02/12 11:16:33;;;;;;;24.90;13.40;;;;;;;4.18;94.64;99870.86;52498;1251;1073853;-79
2023/02/12 11:19:04;;;;;;;18.00;8.90;;;;;;;4.08;93.19;99876.14;52484;1257;1070999;-79
2023/02/12 11:21:31;;;;;;;18.70;9.80;;;;;;;4.06;94.43;99872.08;52508;1251;1073226;-77
2023/02/12 11:24:21;;;;;;;18.20;9.80;;;;;;;4.02;94.53;99871.66;52525;1257;1016359;-79